sensor_id;sensor_type;location;lat;lon;timestamp;pressure;altitude;pressure_sealevel;temperature;humidity
49515;BME280;35415;47.870;16.058;2023-02-11T00:00:19;99178.56;;;-1.45;71.89
49515;BME280;35415;47.870;16.058;2023-02-11T00:02:46;99175.25;;;-1.47;71.19
49515;BME280;35415;47.870;16.058;2023-02-11T00:05:13;99173.75;;;-1.49;71.76
49515;BME280;35415;47.870;16.058;2023-02-11T00:07:40;99171.38;;;-1.53;72.10
49515;BME280;35415;47.870;16.058;2023-02-11T00:10:09;99172.09;;;-1.60;71.68
49515;BME280;35415;47.870;16.058;2023-02-11T00:12:36;99171.81;;;-1.57;72.02
49515;BME280;35415;47.870;16.058;2023-02-11T00:15:04;99173.75;;;-1.59;72.17
49515;BME280;35415;47.870;16.058;2023-02-11T00:17:31;99163.66;;;-1.64;73.17
49515;BME280;35415;47.870;16.058;2023-02-11T00:19:58;99171.84;;;-1.67;72.06
49515;BME280;35415;47.870;16.058;2023-02-11T00:22:25;99148.56;;;-1.81;73.15
49515;BME280;35415;47.870;16.058;2023-02-11T00:24:52;99154.78;;;-1.72;73.65
49515;BME280;35415;47.870;16.058;2023-02-11T00:27:23;99156.72;;;-1.74;73.07
49515;BME280;35415;47.870;16.058;2023-02-11T00:29:50;99150.75;;;-1.76;74.31
49515;BME280;35415;47.870;16.058;2023-02-11T00:32:17;99150.22;;;-1.80;74.81
49515;BME280;35415;47.870;16.058;2023-02-11T00:34:44;99151.88;;;-1.79;74.85
49515;BME280;35415;47.870;16.058;2023-02-11T00:37:11;99152.84;;;-1.80;74.12
49515;BME280;35415;47.870;16.058;2023-02-11T00:39:38;99155.63;;;-1.82;73.43
49515;BME280;35415;47.870;16.058;2023-02-11T00:42:05;99137.88;;;-1.89;74.08
49515;BME280;35415;47.870;16.058;2023-02-11T00:44:33;99147.72;;;-1.82;74.33
49515;BME280;35415;47.870;16.058;2023-02-11T00:47:00;99156.63;;;-1.83;73.91
49515;BME280;35415;47.870;16.058;2023-02-11T00:49:27;99137.47;;;-1.85;74.47
49515;BME280;35415;47.870;16.058;2023-02-11T00:51:54;99135.78;;;-1.86;75.24
49515;BME280;35415;47.870;16.058;2023-02-11T00:54:21;99139.38;;;-1.87;74.28
49515;BME280;35415;47.870;16.058;2023-02-11T00:56:48;99140.50;;;-1.89;74.28
49515;BME280;35415;47.870;16.058;2023-02-11T00:59:15;99138.69;;;-1.89;75.30
49515;BME280;35415;47.870;16.058;2023-02-11T01:01:43;99135.38;;;-1.91;74.96
49515;BME280;35415;47.870;16.058;2023-02-11T01:04:10;99126.78;;;-1.93;75.66
49515;BME280;35415;47.870;16.058;2023-02-11T01:06:37;99124.28;;;-1.94;75.97
49515;BME280;35415;47.870;16.058;2023-02-11T01:09:04;99122.63;;;-1.95;75.12
49515;BME280;35415;47.870;16.058;2023-02-11T01:11:31;99105.00;;;-2.04;75.95
49515;BME280;35415;47.870;16.058;2023-02-11T01:13:58;99123.91;;;-1.99;75.93
49515;BME280;35415;47.870;16.058;2023-02-11T01:16:25;99121.41;;;-2.01;75.75
49515;BME280;35415;47.870;16.058;2023-02-11T01:18:54;99128.59;;;-2.03;75.97
49515;BME280;35415;47.870;16.058;2023-02-11T01:21:21;99126.94;;;-2.04;76.29
49515;BME280;35415;47.870;16.058;2023-02-11T01:23:48;99135.97;;;-2.06;76.59
49515;BME280;35415;47.870;16.058;2023-02-11T01:26:15;99133.47;;;-2.08;76.70
49515;BME280;35415;47.870;16.058;2023-02-11T01:28:42;99122.38;;;-2.12;76.70
49515;BME280;35415;47.870;16.058;2023-02-11T01:31:09;99126.69;;;-2.10;76.11
49515;BME280;35415;47.870;16.058;2023-02-11T01:33:36;99131.13;;;-2.11;77.06
49515;BME280;35415;47.870;16.058;2023-02-11T01:36:06;99126.97;;;-2.14;77.03
49515;BME280;35415;47.870;16.058;2023-02-11T01:38:33;99120.19;;;-2.16;77.41
49515;BME280;35415;47.870;16.058;2023-02-11T01:41:01;99115.75;;;-2.25;77.58
49515;BME280;35415;47.870;16.058;2023-02-11T01:43:33;99124.88;;;-2.20;76.84
49515;BME280;35415;47.870;16.058;2023-02-11T01:46:11;99124.88;;;-2.20;77.21
49515;BME280;35415;47.870;16.058;2023-02-11T01:48:41;99107.44;;;-2.30;77.66
49515;BME280;35415;47.870;16.058;2023-02-11T01:51:13;99130.44;;;-2.23;77.83
49515;BME280;35415;47.870;16.058;2023-02-11T01:53:43;99130.72;;;-2.26;77.34
49515;BME280;35415;47.870;16.058;2023-02-11T01:56:28;99132.53;;;-2.26;77.36
49515;BME280;35415;47.870;16.058;2023-02-11T01:59:16;99121.16;;;-2.27;76.26
49515;BME280;35415;47.870;16.058;2023-02-11T02:01:49;99107.56;;;-2.42;76.71
49515;BME280;35415;47.870;16.058;2023-02-11T02:04:19;99122.56;;;-2.32;77.28
49515;BME280;35415;47.870;16.058;2023-02-11T02:06:56;99116.59;;;-2.34;76.88
49515;BME280;35415;47.870;16.058;2023-02-11T02:09:27;99117.00;;;-2.39;77.24
49515;BME280;35415;47.870;16.058;2023-02-11T02:11:58;99116.16;;;-2.39;77.67
49515;BME280;35415;47.870;16.058;2023-02-11T02:14:25;99114.66;;;-2.42;78.12
49515;BME280;35415;47.870;16.058;2023-02-11T02:16:52;99106.88;;;-2.44;78.55
49515;BME280;35415;47.870;16.058;2023-02-11T02:19:53;99103.41;;;-2.44;77.80
49515;BME280;35415;47.870;16.058;2023-02-11T02:25:44;99095.94;;;-2.49;78.01
49515;BME280;35415;47.870;16.058;2023-02-11T02:28:33;99091.78;;;-2.51;78.12
49515;BME280;35415;47.870;16.058;2023-02-11T02:31:25;99085.69;;;-2.52;78.27
49515;BME280;35415;47.870;16.058;2023-02-11T02:34:02;99083.16;;;-2.53;79.28
49515;BME280;35415;47.870;16.058;2023-02-11T02:36:36;99070.13;;;-2.55;79.75
49515;BME280;35415;47.870;16.058;2023-02-11T02:39:08;99080.81;;;-2.56;79.21
49515;BME280;35415;47.870;16.058;2023-02-11T02:41:36;99076.53;;;-2.57;79.72
49515;BME280;35415;47.870;16.058;2023-02-11T02:44:06;99076.66;;;-2.59;80.01
49515;BME280;35415;47.870;16.058;2023-02-11T02:46:35;99053.91;;;-2.69;79.99
49515;BME280;35415;47.870;16.058;2023-02-11T02:49:05;99070.84;;;-2.62;79.20
49515;BME280;35415;47.870;16.058;2023-02-11T02:54:56;99052.69;;;-2.65;78.67
49515;BME280;35415;47.870;16.058;2023-02-11T02:57:31;99048.53;;;-2.68;78.70
49515;BME280;35415;47.870;16.058;2023-02-11T03:00:17;99043.38;;;-2.69;78.54
49515;BME280;35415;47.870;16.058;2023-02-11T03:03:07;99024.16;;;-2.80;78.48
49515;BME280;35415;47.870;16.058;2023-02-11T03:05:47;99007.38;;;-2.88;78.41
49515;BME280;35415;47.870;16.058;2023-02-11T03:08:24;99038.00;;;-2.78;79.42
49515;BME280;35415;47.870;16.058;2023-02-11T03:10:54;99025.13;;;-2.81;78.94
49515;BME280;35415;47.870;16.058;2023-02-11T03:13:26;99035.09;;;-2.84;78.99
49515;BME280;35415;47.870;16.058;2023-02-11T03:16:00;99036.06;;;-2.85;78.23
49515;BME280;35415;47.870;16.058;2023-02-11T03:18:31;99032.88;;;-2.89;78.29
49515;BME280;35415;47.870;16.058;2023-02-11T03:21:01;99014.59;;;-3.00;79.31
49515;BME280;35415;47.870;16.058;2023-02-11T03:23:33;99031.78;;;-2.96;78.93
49515;BME280;35415;47.870;16.058;2023-02-11T03:26:06;99033.72;;;-2.98;78.75
49515;BME280;35415;47.870;16.058;2023-02-11T03:28:38;99029.56;;;-3.00;78.37
49515;BME280;35415;47.870;16.058;2023-02-11T03:31:11;99027.19;;;-3.04;78.53
49515;BME280;35415;47.870;16.058;2023-02-11T03:33:45;99024.69;;;-3.05;78.44
49515;BME280;35415;47.870;16.058;2023-02-11T03:36:19;99029.41;;;-3.09;78.95
49515;BME280;35415;47.870;16.058;2023-02-11T03:38:51;99028.72;;;-3.11;78.96
49515;BME280;35415;47.870;16.058;2023-02-11T03:41:21;99032.47;;;-3.13;78.78
49515;BME280;35415;47.870;16.058;2023-02-11T03:43:52;99030.94;;;-3.16;79.04
49515;BME280;35415;47.870;16.058;2023-02-11T03:46:23;99025.81;;;-3.17;78.75
49515;BME280;35415;47.870;16.058;2023-02-11T03:48:54;99016.25;;;-3.18;78.89
49515;BME280;35415;47.870;16.058;2023-02-11T03:51:24;99011.38;;;-3.23;78.72
49515;BME280;35415;47.870;16.058;2023-02-11T03:53:55;99000.84;;;-3.23;78.82
49515;BME280;35415;47.870;16.058;2023-02-11T03:56:26;98998.38;;;-3.24;79.52
49515;BME280;35415;47.870;16.058;2023-02-11T03:58:55;98996.16;;;-3.29;78.59
49515;BME280;35415;47.870;16.058;2023-02-11T04:01:22;98991.72;;;-3.28;79.30
49515;BME280;35415;47.870;16.058;2023-02-11T04:03:49;98982.16;;;-3.29;79.04
49515;BME280;35415;47.870;16.058;2023-02-11T04:06:16;98984.25;;;-3.33;79.82
49515;BME280;35415;47.870;16.058;2023-02-11T04:08:45;98979.97;;;-3.34;79.04
49515;BME280;35415;47.870;16.058;2023-02-11T04:11:11;98981.19;;;-3.38;79.85
49515;BME280;35415;47.870;16.058;2023-02-11T04:13:38;98971.63;;;-3.39;80.46
49515;BME280;35415;47.870;16.058;2023-02-11T04:16:06;98975.38;;;-3.42;80.13
49515;BME280;35415;47.870;16.058;2023-02-11T04:18:33;98961.53;;;-3.44;80.35
49515;BME280;35415;47.870;16.058;2023-02-11T04:21:00;98952.09;;;-3.46;80.91
49515;BME280;35415;47.870;16.058;2023-02-11T04:23:27;98962.78;;;-3.48;81.36
49515;BME280;35415;47.870;16.058;2023-02-11T04:25:55;98949.75;;;-3.49;81.08
49515;BME280;35415;47.870;16.058;2023-02-11T04:28:22;98934.50;;;-3.55;80.96
49515;BME280;35415;47.870;16.058;2023-02-11T04:30:51;98940.47;;;-3.53;80.66
49515;BME280;35415;47.870;16.058;2023-02-11T04:33:18;98943.09;;;-3.53;80.80
49515;BME280;35415;47.870;16.058;2023-02-11T04:35:45;98945.03;;;-3.55;81.33
49515;BME280;35415;47.870;16.058;2023-02-11T04:38:13;98947.81;;;-3.57;81.77
49515;BME280;35415;47.870;16.058;2023-02-11T04:40:40;98951.41;;;-3.58;81.43
49515;BME280;35415;47.870;16.058;2023-02-11T04:43:09;98949.19;;;-3.63;81.13
49515;BME280;35415;47.870;16.058;2023-02-11T04:45:36;98955.13;;;-3.60;80.84
49515;BME280;35415;47.870;16.058;2023-02-11T04:48:03;98953.47;;;-3.61;80.74
49515;BME280;35415;47.870;16.058;2023-02-11T04:50:30;98948.34;;;-3.63;80.83
49515;BME280;35415;47.870;16.058;2023-02-11T04:52:57;98940.59;;;-3.65;81.26
49515;BME280;35415;47.870;16.058;2023-02-11T04:55:24;98948.63;;;-3.66;81.44
49515;BME280;35415;47.870;16.058;2023-02-11T04:57:51;98955.84;;;-3.68;81.12
49515;BME280;35415;47.870;16.058;2023-02-11T05:00:21;98952.91;;;-3.75;81.25
49515;BME280;35415;47.870;16.058;2023-02-11T05:02:48;98959.53;;;-3.71;81.21
49515;BME280;35415;47.870;16.058;2023-02-11T05:05:15;98963.28;;;-3.73;81.43
49515;BME280;35415;47.870;16.058;2023-02-11T05:07:42;98961.75;;;-3.76;81.70
49515;BME280;35415;47.870;16.058;2023-02-11T05:10:09;98955.94;;;-3.79;82.06
49515;BME280;35415;47.870;16.058;2023-02-11T05:12:36;98948.19;;;-3.81;81.47
49515;BME280;35415;47.870;16.058;2023-02-11T05:15:04;98949.28;;;-3.83;82.50
49515;BME280;35415;47.870;16.058;2023-02-11T05:17:32;98950.50;;;-3.87;82.10
49515;BME280;35415;47.870;16.058;2023-02-11T05:20:00;98948.97;;;-3.90;83.26
49515;BME280;35415;47.870;16.058;2023-02-11T05:22:30;98947.47;;;-3.92;83.51
49515;BME280;35415;47.870;16.058;2023-02-11T05:24:57;98944.69;;;-3.91;82.34
49515;BME280;35415;47.870;16.058;2023-02-11T05:27:24;98930.16;;;-3.95;83.44
49515;BME280;35415;47.870;16.058;2023-02-11T05:29:51;98931.13;;;-3.96;83.49
49515;BME280;35415;47.870;16.058;2023-02-11T05:32:18;98926.72;;;-3.96;84.64
49515;BME280;35415;47.870;16.058;2023-02-11T05:34:47;98923.25;;;-3.96;85.03
49515;BME280;35415;47.870;16.058;2023-02-11T05:37:14;98937.22;;;-3.96;85.10
49515;BME280;35415;47.870;16.058;2023-02-11T05:39:41;98936.66;;;-3.99;85.49
49515;BME280;35415;47.870;16.058;2023-02-11T05:42:08;98937.91;;;-3.94;85.46
49515;BME280;35415;47.870;16.058;2023-02-11T05:44:35;98940.41;;;-3.92;85.47
49515;BME280;35415;47.870;16.058;2023-02-11T05:47:02;98937.63;;;-3.90;86.01
49515;BME280;35415;47.870;16.058;2023-02-11T05:49:29;98938.47;;;-3.90;86.13
49515;BME280;35415;47.870;16.058;2023-02-11T05:51:58;98935.69;;;-3.88;85.47
49515;BME280;35415;47.870;16.058;2023-02-11T05:54:25;98935.47;;;-3.85;84.86
49515;BME280;35415;47.870;16.058;2023-02-11T05:56:52;98935.56;;;-3.87;85.10
49515;BME280;35415;47.870;16.058;2023-02-11T05:59:19;98940.00;;;-3.87;86.18
49515;BME280;35415;47.870;16.058;2023-02-11T06:01:46;98926.00;;;-3.98;85.86
49515;BME280;35415;47.870;16.058;2023-02-11T06:04:13;98934.72;;;-3.87;86.75
49515;BME280;35415;47.870;16.058;2023-02-11T06:06:40;98918.00;;;-3.96;86.50
49515;BME280;35415;47.870;16.058;2023-02-11T06:09:09;98923.25;;;-3.86;86.77
49515;BME280;35415;47.870;16.058;2023-02-11T06:11:36;98904.44;;;-3.91;86.85
49515;BME280;35415;47.870;16.058;2023-02-11T06:14:04;98909.16;;;-3.85;87.08
49515;BME280;35415;47.870;16.058;2023-02-11T06:16:31;98895.06;;;-3.84;86.78
49515;BME280;35415;47.870;16.058;2023-02-11T06:18:58;98893.94;;;-3.82;87.47
49515;BME280;35415;47.870;16.058;2023-02-11T06:21:25;98893.13;;;-3.82;87.51
49515;BME280;35415;47.870;16.058;2023-02-11T06:23:52;98890.34;;;-3.81;87.86
49515;BME280;35415;47.870;16.058;2023-02-11T06:26:22;98876.94;;;-3.78;88.55
49515;BME280;35415;47.870;16.058;2023-02-11T06:28:49;98879.97;;;-3.73;89.10
49515;BME280;35415;47.870;16.058;2023-02-11T06:31:16;98875.97;;;-3.67;88.88
49515;BME280;35415;47.870;16.058;2023-02-11T06:33:43;98862.81;;;-3.57;89.00
49515;BME280;35415;47.870;16.058;2023-02-11T06:36:13;98877.19;;;-3.42;89.67
49515;BME280;35415;47.870;16.058;2023-02-11T06:38:40;98864.31;;;-3.16;90.19
49515;BME280;35415;47.870;16.058;2023-02-11T06:41:08;98868.09;;;-2.82;90.04
49515;BME280;35415;47.870;16.058;2023-02-11T06:43:38;98847.84;;;-2.44;89.11
49515;BME280;35415;47.870;16.058;2023-02-11T06:46:05;98852.56;;;-2.02;87.49
49515;BME280;35415;47.870;16.058;2023-02-11T06:48:33;98848.44;;;-1.69;85.65
49515;BME280;35415;47.870;16.058;2023-02-11T06:51:01;98842.53;;;-1.28;82.40
49515;BME280;35415;47.870;16.058;2023-02-11T06:53:29;98845.09;;;-0.92;79.99
49515;BME280;35415;47.870;16.058;2023-02-11T06:56:01;98840.34;;;-0.54;77.04
49515;BME280;35415;47.870;16.058;2023-02-11T06:58:28;98835.34;;;-0.32;74.75
49515;BME280;35415;47.870;16.058;2023-02-11T07:00:56;98812.56;;;-0.16;74.17
49515;BME280;35415;47.870;16.058;2023-02-11T07:03:23;98833.31;;;0.21;72.28
49515;BME280;35415;47.870;16.058;2023-02-11T07:05:50;98842.44;;;0.43;69.92
49515;BME280;35415;47.870;16.058;2023-02-11T07:08:17;98838.63;;;0.62;68.27
49515;BME280;35415;47.870;16.058;2023-02-11T07:10:44;98845.56;;;0.79;67.32
49515;BME280;35415;47.870;16.058;2023-02-11T07:13:13;98825.88;;;0.89;65.57
49515;BME280;35415;47.870;16.058;2023-02-11T07:15:40;98827.84;;;1.04;64.12
49515;BME280;35415;47.870;16.058;2023-02-11T07:18:08;98847.81;;;1.31;62.83
49515;BME280;35415;47.870;16.058;2023-02-11T07:20:37;98854.88;;;1.46;61.08
49515;BME280;35415;47.870;16.058;2023-02-11T07:23:05;98840.56;;;1.64;59.22
49515;BME280;35415;47.870;16.058;2023-02-11T07:25:33;98804.84;;;1.52;59.74
49515;BME280;35415;47.870;16.058;2023-02-11T07:28:00;98844.97;;;1.88;58.44
49515;BME280;35415;47.870;16.058;2023-02-11T07:30:28;98837.56;;;2.06;56.77
49515;BME280;35415;47.870;16.058;2023-02-11T07:32:55;98800.63;;;1.96;56.58
49515;BME280;35415;47.870;16.058;2023-02-11T07:35:24;98840.41;;;2.27;55.69
49515;BME280;35415;47.870;16.058;2023-02-11T07:37:51;98839.00;;;2.39;54.94
49515;BME280;35415;47.870;16.058;2023-02-11T07:40:18;98823.31;;;2.53;54.28
49515;BME280;35415;47.870;16.058;2023-02-11T07:42:45;98829.84;;;2.65;53.60
49515;BME280;35415;47.870;16.058;2023-02-11T07:45:12;98821.81;;;2.73;53.70
49515;BME280;35415;47.870;16.058;2023-02-11T07:47:39;98814.78;;;2.80;53.17
49515;BME280;35415;47.870;16.058;2023-02-11T07:50:07;98820.84;;;2.89;52.51
49515;BME280;35415;47.870;16.058;2023-02-11T07:52:35;98823.59;;;2.95;52.46
49515;BME280;35415;47.870;16.058;2023-02-11T07:55:03;98808.03;;;3.07;51.42
49515;BME280;35415;47.870;16.058;2023-02-11T07:57:30;98804.28;;;3.16;50.56
49515;BME280;35415;47.870;16.058;2023-02-11T07:59:57;98796.94;;;3.18;50.39
49515;BME280;35415;47.870;16.058;2023-02-11T08:02:23;98798.78;;;3.32;49.67
49515;BME280;35415;47.870;16.058;2023-02-11T08:04:50;98795.88;;;3.42;49.17
49515;BME280;35415;47.870;16.058;2023-02-11T08:07:18;98791.34;;;3.57;47.73
49515;BME280;35415;47.870;16.058;2023-02-11T08:09:46;98791.16;;;3.59;48.20
49515;BME280;35415;47.870;16.058;2023-02-11T08:12:13;98772.38;;;3.46;47.89
49515;BME280;35415;47.870;16.058;2023-02-11T08:14:40;98771.97;;;3.63;48.12
49515;BME280;35415;47.870;16.058;2023-02-11T08:17:09;98730.00;;;3.29;46.96
49515;BME280;35415;47.870;16.058;2023-02-11T08:19:37;98804.72;;;3.79;46.91
49515;BME280;35415;47.870;16.058;2023-02-11T08:22:04;98803.31;;;3.83;46.58
49515;BME280;35415;47.870;16.058;2023-02-11T08:24:31;98818.09;;;3.85;46.45
49515;BME280;35415;47.870;16.058;2023-02-11T08:27:00;98824.72;;;3.89;47.17
49515;BME280;35415;47.870;16.058;2023-02-11T08:29:27;98812.59;;;3.87;45.49
49515;BME280;35415;47.870;16.058;2023-02-11T08:31:54;98799.38;;;3.79;46.56
49515;BME280;35415;47.870;16.058;2023-02-11T08:34:21;98832.19;;;4.01;45.54
49515;BME280;35415;47.870;16.058;2023-02-11T08:36:48;98834.50;;;4.04;45.86
49515;BME280;35415;47.870;16.058;2023-02-11T08:39:16;98838.44;;;4.08;45.85
49515;BME280;35415;47.870;16.058;2023-02-11T08:41:44;98835.22;;;4.12;45.06
49515;BME280;35415;47.870;16.058;2023-02-11T08:44:14;98838.13;;;4.17;43.99
49515;BME280;35415;47.870;16.058;2023-02-11T08:46:42;98823.25;;;4.23;43.93
49515;BME280;35415;47.870;16.058;2023-02-11T08:49:09;98823.56;;;4.35;42.77
49515;BME280;35415;47.870;16.058;2023-02-11T08:51:36;98815.03;;;4.39;43.15
49515;BME280;35415;47.870;16.058;2023-02-11T08:54:03;98811.16;;;4.42;43.02
49515;BME280;35415;47.870;16.058;2023-02-11T08:56:34;98800.72;;;4.47;42.96
49515;BME280;35415;47.870;16.058;2023-02-11T08:59:01;98786.72;;;4.38;42.25
49515;BME280;35415;47.870;16.058;2023-02-11T09:01:30;98798.78;;;4.56;42.37
49515;BME280;35415;47.870;16.058;2023-02-11T09:03:57;98777.19;;;4.50;42.04
49515;BME280;35415;47.870;16.058;2023-02-11T09:06:26;98783.84;;;4.61;41.94
49515;BME280;35415;47.870;16.058;2023-02-11T09:08:55;98775.69;;;4.69;41.12
49515;BME280;35415;47.870;16.058;2023-02-11T09:11:26;98790.50;;;4.72;40.95
49515;BME280;35415;47.870;16.058;2023-02-11T09:13:53;98796.09;;;4.77;40.84
49515;BME280;35415;47.870;16.058;2023-02-11T09:16:22;98798.78;;;4.83;40.78
49515;BME280;35415;47.870;16.058;2023-02-11T09:18:50;98799.88;;;4.89;40.36
49515;BME280;35415;47.870;16.058;2023-02-11T09:21:19;98794.97;;;4.93;40.27
49515;BME280;35415;47.870;16.058;2023-02-11T09:23:46;98783.25;;;4.87;39.56
49515;BME280;35415;47.870;16.058;2023-02-11T09:26:17;98777.72;;;4.89;40.25
49515;BME280;35415;47.870;16.058;2023-02-11T09:28:47;98730.78;;;4.66;39.95
49515;BME280;35415;47.870;16.058;2023-02-11T09:31:20;98758.41;;;4.87;38.60
49515;BME280;35415;47.870;16.058;2023-02-11T09:33:51;98820.50;;;5.36;38.54
49515;BME280;35415;47.870;16.058;2023-02-11T09:36:21;98794.88;;;5.42;37.85
49515;BME280;35415;47.870;16.058;2023-02-11T09:38:49;98733.53;;;5.07;37.79
49515;BME280;35415;47.870;16.058;2023-02-11T09:41:30;98787.72;;;5.42;37.50
49515;BME280;35415;47.870;16.058;2023-02-11T09:44:16;98790.00;;;5.52;37.52
49515;BME280;35415;47.870;16.058;2023-02-11T09:46:49;98796.50;;;5.78;35.76
49515;BME280;35415;47.870;16.058;2023-02-11T09:49:22;98790.75;;;5.74;37.22
49515;BME280;35415;47.870;16.058;2023-02-11T09:51:56;98806.25;;;5.92;36.29
49515;BME280;35415;47.870;16.058;2023-02-11T09:54:35;98792.28;;;6.03;36.21
49515;BME280;35415;47.870;16.058;2023-02-11T09:57:35;98794.19;;;6.09;35.24
49515;BME280;35415;47.870;16.058;2023-02-11T10:00:32;98798.34;;;6.25;35.61
49515;BME280;35415;47.870;16.058;2023-02-11T10:03:41;98796.91;;;6.36;35.60
49515;BME280;35415;47.870;16.058;2023-02-11T10:06:43;98801.03;;;6.45;34.96
49515;BME280;35415;47.870;16.058;2023-02-11T10:09:59;98775.94;;;6.52;34.69
49515;BME280;35415;47.870;16.058;2023-02-11T10:13:06;98795.72;;;6.58;33.92
49515;BME280;35415;47.870;16.058;2023-02-11T10:16:17;98765.66;;;6.69;33.78
49515;BME280;35415;47.870;16.058;2023-02-11T10:19:27;98765.47;;;6.77;34.36
49515;BME280;35415;47.870;16.058;2023-02-11T10:22:35;98759.91;;;6.85;33.98
49515;BME280;35415;47.870;16.058;2023-02-11T10:25:33;98760.31;;;7.02;33.04
49515;BME280;35415;47.870;16.058;2023-02-11T10:28:30;98724.31;;;6.98;32.13
49515;BME280;35415;47.870;16.058;2023-02-11T10:31:27;98777.53;;;7.33;31.82
49515;BME280;35415;47.870;16.058;2023-02-11T10:34:26;98749.31;;;7.37;31.49
49515;BME280;35415;47.870;16.058;2023-02-11T10:37:20;98742.75;;;7.39;31.53
49515;BME280;35415;47.870;16.058;2023-02-11T10:40:17;98729.75;;;7.36;31.70
49515;BME280;35415;47.870;16.058;2023-02-11T10:43:14;98727.91;;;7.37;32.01
49515;BME280;35415;47.870;16.058;2023-02-11T10:46:15;98706.34;;;7.25;31.25
49515;BME280;35415;47.870;16.058;2023-02-11T10:49:37;98730.56;;;7.43;31.21
49515;BME280;35415;47.870;16.058;2023-02-11T10:52:31;98741.28;;;7.43;30.95
49515;BME280;35415;47.870;16.058;2023-02-11T10:55:27;98712.88;;;7.42;31.19
49515;BME280;35415;47.870;16.058;2023-02-11T10:58:24;98699.91;;;7.39;31.10
49515;BME280;35415;47.870;16.058;2023-02-11T11:01:21;98709.38;;;7.42;30.04
49515;BME280;35415;47.870;16.058;2023-02-11T11:04:36;98696.00;;;7.42;30.13
49515;BME280;35415;47.870;16.058;2023-02-11T11:07:32;98710.81;;;7.44;29.92
49515;BME280;35415;47.870;16.058;2023-02-11T11:10:34;98690.22;;;7.45;29.60
49515;BME280;35415;47.870;16.058;2023-02-11T11:13:35;98690.59;;;7.48;29.58
49515;BME280;35415;47.870;16.058;2023-02-11T11:16:33;98691.19;;;7.50;29.94
49515;BME280;35415;47.870;16.058;2023-02-11T11:19:31;98693.44;;;7.53;28.50
49515;BME280;35415;47.870;16.058;2023-02-11T11:22:25;98699.81;;;7.59;28.46
49515;BME280;35415;47.870;16.058;2023-02-11T11:25:38;98691.97;;;7.64;28.16
49515;BME280;35415;47.870;16.058;2023-02-11T11:28:50;98671.00;;;7.54;28.39
49515;BME280;35415;47.870;16.058;2023-02-11T11:31:50;98674.25;;;7.63;29.05
49515;BME280;35415;47.870;16.058;2023-02-11T11:34:58;98663.72;;;7.68;29.01
49515;BME280;35415;47.870;16.058;2023-02-11T11:37:56;98649.56;;;7.61;29.40
49515;BME280;35415;47.870;16.058;2023-02-11T11:41:14;98667.78;;;7.77;29.58
49515;BME280;35415;47.870;16.058;2023-02-11T11:44:22;98652.16;;;7.74;29.09
49515;BME280;35415;47.870;16.058;2023-02-11T11:47:26;98642.16;;;7.88;29.10
49515;BME280;35415;47.870;16.058;2023-02-11T11:50:26;98630.75;;;7.68;29.01
49515;BME280;35415;47.870;16.058;2023-02-11T11:53:28;98647.88;;;7.98;29.70
49515;BME280;35415;47.870;16.058;2023-02-11T11:56:27;98649.47;;;8.06;31.00
49515;BME280;35415;47.870;16.058;2023-02-11T11:59:29;98641.38;;;8.12;31.34
49515;BME280;35415;47.870;16.058;2023-02-11T12:02:39;98639.09;;;8.16;31.74
49515;BME280;35415;47.870;16.058;2023-02-11T12:05:42;98641.53;;;8.18;32.52
49515;BME280;35415;47.870;16.058;2023-02-11T12:08:45;98648.72;;;8.24;32.90
49515;BME280;35415;47.870;16.058;2023-02-11T12:12:05;98623.22;;;8.14;33.20
49515;BME280;35415;47.870;16.058;2023-02-11T12:15:15;98625.22;;;8.26;33.22
49515;BME280;35415;47.870;16.058;2023-02-11T12:18:23;98615.88;;;8.35;33.69
49515;BME280;35415;47.870;16.058;2023-02-11T12:21:34;98608.00;;;8.40;33.83
49515;BME280;35415;47.870;16.058;2023-02-11T12:24:48;98542.94;;;8.01;34.22
49515;BME280;35415;47.870;16.058;2023-02-11T12:28:02;98600.31;;;8.43;34.64
49515;BME280;35415;47.870;16.058;2023-02-11T12:31:19;98587.28;;;8.47;35.96
49515;BME280;35415;47.870;16.058;2023-02-11T12:37:46;98558.75;;;8.53;36.71
49515;BME280;35415;47.870;16.058;2023-02-11T12:40:53;98582.31;;;8.69;36.68
49515;BME280;35415;47.870;16.058;2023-02-11T12:43:52;98580.81;;;8.73;36.66
49515;BME280;35415;47.870;16.058;2023-02-11T12:46:49;98579.25;;;8.84;36.04
49515;BME280;35415;47.870;16.058;2023-02-11T12:49:58;98581.28;;;8.88;36.82
49515;BME280;35415;47.870;16.058;2023-02-11T12:53:15;98589.63;;;8.98;35.57
49515;BME280;35415;47.870;16.058;2023-02-11T12:56:18;98581.47;;;9.05;35.90
49515;BME280;35415;47.870;16.058;2023-02-11T12:59:24;98542.59;;;8.96;35.68
49515;BME280;35415;47.870;16.058;2023-02-11T13:02:28;98540.16;;;9.06;34.46
49515;BME280;35415;47.870;16.058;2023-02-11T13:05:27;98563.44;;;9.12;34.45
49515;BME280;35415;47.870;16.058;2023-02-11T13:08:28;98574.25;;;9.24;33.42
49515;BME280;35415;47.870;16.058;2023-02-11T13:11:24;98566.56;;;9.27;32.49
49515;BME280;35415;47.870;16.058;2023-02-11T13:14:25;98544.09;;;9.22;31.91
49515;BME280;35415;47.870;16.058;2023-02-11T13:17:26;98574.16;;;9.30;31.54
49515;BME280;35415;47.870;16.058;2023-02-11T13:20:30;98571.81;;;9.34;30.64
49515;BME280;35415;47.870;16.058;2023-02-11T13:23:37;98574.44;;;9.22;31.00
49515;BME280;35415;47.870;16.058;2023-02-11T13:26:39;98590.47;;;9.29;30.63
49515;BME280;35415;47.870;16.058;2023-02-11T13:29:57;98572.78;;;9.10;30.91
49515;BME280;35415;47.870;16.058;2023-02-11T13:33:17;98588.31;;;9.19;31.29
49515;BME280;35415;47.870;16.058;2023-02-11T13:36:19;98589.00;;;9.15;31.18
49515;BME280;35415;47.870;16.058;2023-02-11T13:39:19;98590.88;;;9.14;31.65
49515;BME280;35415;47.870;16.058;2023-02-11T13:42:15;98582.91;;;9.08;32.40
49515;BME280;35415;47.870;16.058;2023-02-11T13:45:27;98579.25;;;9.02;32.82
49515;BME280;35415;47.870;16.058;2023-02-11T13:48:23;98589.25;;;8.95;32.66
49515;BME280;35415;47.870;16.058;2023-02-11T13:51:34;98576.53;;;8.90;33.08
49515;BME280;35415;47.870;16.058;2023-02-11T13:54:32;98580.03;;;8.91;33.14
49515;BME280;35415;47.870;16.058;2023-02-11T13:57:44;98593.63;;;8.89;32.98
49515;BME280;35415;47.870;16.058;2023-02-11T14:00:45;98587.69;;;8.87;33.78